createdAt,value
2018-06-15T00:01:29.618Z,99016.22
2018-06-15T00:03:58.817Z,99012.20
2018-06-15T00:06:27.950Z,99012.12
2018-06-15T00:08:57.191Z,99008.50
2018-06-15T00:11:26.464Z,99008.22
2018-06-15T00:13:55.809Z,99008.44
2018-06-15T00:16:25.093Z,99009.05
2018-06-15T00:18:54.290Z,99006.92
2018-06-15T00:21:23.383Z,99004.69
2018-06-15T00:23:52.498Z,99005.34
2018-06-15T00:26:21.663Z,99004.91
2018-06-15T00:28:50.875Z,99000.00
2018-06-15T00:31:20.191Z,99002.72
2018-06-15T00:33:49.456Z,98994.52
2018-06-15T00:36:18.679Z,98998.00
2018-06-15T00:38:47.924Z,99000.36
2018-06-15T00:41:17.057Z,98999.22
2018-06-15T00:43:46.835Z,98879.09
2018-06-15T00:46:15.990Z,98992.56
2018-06-15T00:48:45.180Z,98995.08
2018-06-15T00:51:14.682Z,98989.80
2018-06-15T00:53:43.798Z,98992.39
2018-06-15T00:56:12.978Z,98991.03
2018-06-15T00:58:42.130Z,98986.22
2018-06-15T01:01:11.278Z,98989.41
2018-06-15T01:03:40.436Z,98985.56
2018-06-15T01:06:09.573Z,98990.97
2018-06-15T01:08:38.708Z,98987.81
2018-06-15T01:11:08.038Z,98986.56
2018-06-15T01:13:37.165Z,98986.41
2018-06-15T01:16:06.710Z,98980.27
2018-06-15T01:18:36.862Z,98981.00
2018-06-15T01:21:06.394Z,98978.22
2018-06-15T01:23:35.672Z,98973.85
2018-06-15T01:26:04.982Z,98976.38
2018-06-15T01:28:34.353Z,98970.81
2018-06-15T01:31:04.111Z,98973.06
2018-06-15T01:33:33.392Z,98969.95
2018-06-15T01:36:02.740Z,98982.41
2018-06-15T01:38:31.954Z,98967.19
2018-06-15T01:41:01.093Z,98970.88
2018-06-15T01:43:30.181Z,98962.64
2018-06-15T01:45:59.431Z,98964.68
2018-06-15T01:48:28.781Z,98963.91
2018-06-15T01:50:57.869Z,98959.05
2018-06-15T01:53:26.951Z,98962.06
2018-06-15T01:55:56.002Z,98960.88
2018-06-15T01:58:25.288Z,98961.37
2018-06-15T02:00:54.461Z,98963.17
2018-06-15T02:03:23.645Z,98965.80
2018-06-15T02:05:52.782Z,98970.70
2018-06-15T02:08:21.979Z,98969.35
2018-06-15T02:10:51.079Z,98963.81
2018-06-15T02:13:20.416Z,98966.20
2018-06-15T02:15:49.575Z,98961.77
2018-06-15T02:18:18.724Z,98959.39
2018-06-15T02:20:47.870Z,98958.91
2018-06-15T02:23:17.021Z,98952.07
2018-06-15T02:25:46.160Z,98950.80
2018-06-15T02:28:15.265Z,98953.72
2018-06-15T02:30:44.377Z,98956.34
2018-06-15T02:33:13.713Z,98960.77
2018-06-15T02:35:42.807Z,98964.94
2018-06-15T02:38:11.934Z,98956.56
2018-06-15T02:40:41.068Z,98960.51
2018-06-15T02:43:10.143Z,98961.25
2018-06-15T02:45:39.364Z,98966.39
2018-06-15T02:48:09.193Z,98970.59
2018-06-15T02:50:38.696Z,98968.09
2018-06-15T02:53:07.873Z,98967.30
2018-06-15T02:55:37.068Z,98962.27
2018-06-15T02:58:06.233Z,98968.89
2018-06-15T03:00:35.468Z,98972.53
2018-06-15T03:08:07.885Z,98983.80
2018-06-15T03:10:37.069Z,98968.41
2018-06-15T03:13:06.322Z,98964.78
2018-06-15T03:15:35.942Z,98963.78
2018-06-15T03:18:05.173Z,98963.78
2018-06-15T03:20:34.747Z,98964.72
2018-06-15T03:23:04.092Z,98965.85
2018-06-15T03:25:33.285Z,98961.73
2018-06-15T03:28:02.830Z,98963.78
2018-06-15T03:30:32.133Z,98968.09
2018-06-15T03:33:01.350Z,98973.16
2018-06-15T03:35:30.508Z,98966.22
2018-06-15T03:37:59.686Z,98968.16
2018-06-15T03:40:28.854Z,98972.10
2018-06-15T03:42:58.484Z,98968.84
2018-06-15T03:45:27.584Z,98964.77
2018-06-15T03:47:56.785Z,98966.77
2018-06-15T03:50:26.846Z,98965.48
2018-06-15T03:52:56.026Z,98963.30
2018-06-15T03:55:25.100Z,98971.45
2018-06-15T03:57:54.234Z,98967.73
2018-06-15T04:00:23.483Z,98968.16
2018-06-15T04:02:52.629Z,98965.84
2018-06-15T04:05:21.801Z,98967.84
2018-06-15T04:07:51.083Z,98970.40
2018-06-15T04:10:20.296Z,98974.61
2018-06-15T04:12:49.405Z,98972.36
2018-06-15T04:15:18.571Z,98967.98
2018-06-15T04:17:52.074Z,98976.59
2018-06-15T04:20:21.221Z,98970.28
2018-06-15T04:22:50.364Z,98975.80
2018-06-15T04:25:19.582Z,98976.84
2018-06-15T04:27:48.780Z,98985.08
2018-06-15T04:30:17.978Z,98990.48
2018-06-15T04:32:47.215Z,98977.39
2018-06-15T04:35:16.378Z,98982.19
2018-06-15T04:37:45.861Z,98987.44
2018-06-15T04:40:15.166Z,98989.29
2018-06-15T04:42:44.684Z,98988.23
2018-06-15T04:45:13.979Z,98993.09
2018-06-15T04:47:43.460Z,98988.19
2018-06-15T04:50:12.784Z,98993.09
2018-06-15T04:52:42.070Z,98992.24
2018-06-15T04:55:11.998Z,98992.50
2018-06-15T04:57:41.204Z,98989.14
2018-06-15T05:00:10.487Z,98989.83
2018-06-15T05:02:39.696Z,98990.62
2018-06-15T05:05:09.896Z,98987.81
2018-06-15T05:07:39.136Z,98983.09
2018-06-15T05:10:08.311Z,98980.66
2018-06-15T05:12:37.434Z,98984.12
2018-06-15T05:15:06.598Z,98990.84
2018-06-15T05:17:35.733Z,98986.03
2018-06-15T05:20:08.524Z,98983.79
2018-06-15T05:22:37.919Z,98992.39
2018-06-15T05:25:07.090Z,98991.82
2018-06-15T05:27:36.290Z,98992.68
2018-06-15T05:30:05.664Z,98998.38
2018-06-15T05:32:34.854Z,98997.95
2018-06-15T05:35:04.080Z,98987.29
2018-06-15T05:37:33.163Z,98992.90
2018-06-15T05:40:02.554Z,98989.74
2018-06-15T05:42:31.693Z,98991.27
2018-06-15T05:45:00.958Z,98993.21
2018-06-15T05:47:30.095Z,99000.63
2018-06-15T05:49:59.236Z,99002.82
2018-06-15T05:52:28.413Z,99001.22
2018-06-15T05:54:57.632Z,99007.61
2018-06-15T05:57:26.899Z,99000.28
2018-06-15T05:59:56.055Z,99011.05
2018-06-15T06:02:25.560Z,99012.01
2018-06-15T06:04:54.819Z,99017.91
2018-06-15T06:07:24.265Z,99018.40
2018-06-15T06:09:53.472Z,99021.44
2018-06-15T06:12:22.623Z,99027.27
2018-06-15T06:14:51.840Z,99025.13
2018-06-15T06:17:20.960Z,99025.45
2018-06-15T06:19:50.307Z,99032.94
2018-06-15T06:22:19.539Z,99035.48
2018-06-15T06:24:48.858Z,99031.94
2018-06-15T06:27:18.540Z,99040.85
2018-06-15T06:29:47.671Z,99036.05
2018-06-15T06:32:16.979Z,99041.30
2018-06-15T06:34:46.135Z,99036.56
2018-06-15T06:37:15.569Z,99045.30
2018-06-15T06:39:44.826Z,99039.50
2018-06-15T06:42:14.124Z,99040.66
2018-06-15T06:44:43.269Z,99041.98
2018-06-15T06:47:12.472Z,99044.70
2018-06-15T06:49:41.666Z,99042.34
2018-06-15T06:52:11.180Z,99047.22
2018-06-15T06:54:40.850Z,99045.56
2018-06-15T06:57:09.978Z,99060.38
2018-06-15T06:59:39.190Z,99046.76
2018-06-15T07:02:09.501Z,99040.28
2018-06-15T07:04:38.710Z,99043.98
2018-06-15T07:07:07.935Z,99046.55
2018-06-15T07:09:37.700Z,99044.77
2018-06-15T07:12:07.914Z,99049.45
2018-06-15T07:14:44.898Z,99056.48
2018-06-15T07:19:56.415Z,99056.31
2018-06-15T07:22:26.110Z,99060.50
2018-06-15T07:24:55.398Z,99054.75
2018-06-15T07:27:24.625Z,99055.77
2018-06-15T07:29:53.767Z,99057.02
2018-06-15T07:32:23.140Z,99061.99
2018-06-15T07:34:53.158Z,99060.58
2018-06-15T07:37:22.472Z,99059.02
2018-06-15T07:39:52.090Z,99063.19
2018-06-15T07:42:21.621Z,99059.58
2018-06-15T07:44:51.060Z,99056.41
2018-06-15T07:47:20.215Z,99060.64
2018-06-15T07:49:49.508Z,99060.44
2018-06-15T07:52:24.192Z,99053.57
2018-06-15T07:54:54.511Z,99057.23
2018-06-15T07:57:23.554Z,99050.56
2018-06-15T07:59:55.583Z,99053.64
2018-06-15T08:02:46.124Z,99049.36
2018-06-15T08:08:10.193Z,99044.45
2018-06-15T08:10:42.631Z,99043.63
2018-06-15T08:13:12.246Z,98948.84
2018-06-15T08:16:01.706Z,99042.95
2018-06-15T08:18:32.318Z,98905.70
2018-06-15T08:21:02.550Z,99032.75
2018-06-15T08:23:37.078Z,99040.05
2018-06-15T08:26:16.075Z,99036.73
2018-06-15T08:28:45.780Z,99043.16
2018-06-15T08:31:15.764Z,99052.45
2018-06-15T08:33:46.056Z,99048.44
2018-06-15T08:36:15.352Z,99045.44
2018-06-15T08:38:44.553Z,99046.28
2018-06-15T08:41:13.714Z,99041.64
2018-06-15T08:43:43.056Z,99035.28
2018-06-15T08:46:12.566Z,99046.44
2018-06-15T08:48:41.744Z,99043.55
2018-06-15T08:51:10.809Z,99045.89
2018-06-15T08:53:40.051Z,99033.80
2018-06-15T08:56:09.327Z,99032.37
2018-06-15T08:58:38.666Z,99036.95
2018-06-15T09:01:07.974Z,99035.06
2018-06-15T09:03:37.315Z,99026.75
2018-06-15T09:06:10.087Z,99027.78
2018-06-15T09:08:40.660Z,99024.73
2018-06-15T09:11:11.780Z,99029.31
2018-06-15T09:13:41.537Z,99025.06
2018-06-15T09:16:11.442Z,99023.27
2018-06-15T09:18:40.595Z,99022.05
2018-06-15T09:21:09.701Z,99026.97
2018-06-15T09:23:38.933Z,99017.78
2018-06-15T09:26:08.152Z,99019.69
2018-06-15T09:28:37.896Z,99018.58
2018-06-15T09:31:07.195Z,99014.96
2018-06-15T09:33:36.656Z,99019.81
2018-06-15T09:36:06.050Z,99022.68
2018-06-15T09:38:35.343Z,98991.52
2018-06-15T09:41:05.985Z,99019.58
2018-06-15T09:43:35.182Z,99016.33
2018-06-15T09:46:04.910Z,99021.81
2018-06-15T09:48:34.101Z,99017.66
2018-06-15T09:51:03.731Z,99021.25
2018-06-15T09:53:36.973Z,99015.99
2018-06-15T09:56:07.067Z,99016.77
2018-06-15T09:58:37.409Z,99018.37
2018-06-15T10:01:07.501Z,99023.84
2018-06-15T10:03:37.504Z,99025.42
2018-06-15T10:06:06.865Z,99018.35
2018-06-15T10:08:36.938Z,99011.19
2018-06-15T10:11:06.401Z,99025.05
2018-06-15T10:13:35.953Z,99028.52
2018-06-15T10:16:05.311Z,99026.81
2018-06-15T10:18:34.576Z,99021.89
2018-06-15T10:21:03.880Z,99023.55
2018-06-15T10:23:33.034Z,99021.09
2018-06-15T10:26:03.151Z,99017.69
2018-06-15T10:28:32.912Z,99019.30
2018-06-15T10:31:02.896Z,99022.28
2018-06-15T10:33:32.031Z,99022.08
2018-06-15T10:36:01.222Z,99024.22
2018-06-15T10:38:30.449Z,99022.02
2018-06-15T10:40:59.646Z,99016.28
2018-06-15T10:43:28.760Z,99017.98
2018-06-15T10:45:57.841Z,99021.33
2018-06-15T10:48:27.065Z,99019.63
2018-06-15T10:50:57.086Z,99010.70
2018-06-15T10:53:26.278Z,99006.66
2018-06-15T10:55:55.527Z,99008.80
2018-06-15T10:58:24.815Z,99013.27
2018-06-15T11:00:53.882Z,99014.34
2018-06-15T11:03:23.071Z,99012.97
2018-06-15T11:05:52.369Z,99013.73
2018-06-15T11:08:21.676Z,99017.95
2018-06-15T11:10:51.497Z,99009.18
2018-06-15T11:13:20.750Z,99002.52
2018-06-15T11:15:49.846Z,99006.23
2018-06-15T11:18:19.655Z,99006.78
2018-06-15T11:20:48.783Z,99004.88
2018-06-15T11:23:17.962Z,99011.72
2018-06-15T11:25:47.406Z,99002.62
2018-06-15T11:28:16.699Z,99002.39
2018-06-15T11:30:46.254Z,99001.06
2018-06-15T11:33:15.592Z,98998.48
2018-06-15T11:35:44.809Z,99007.35
2018-06-15T11:38:14.051Z,98787.72
2018-06-15T11:40:44.228Z,99007.76
2018-06-15T11:43:13.652Z,99000.16
2018-06-15T11:45:43.795Z,99001.51
2018-06-15T11:48:13.872Z,99008.91
2018-06-15T11:50:43.986Z,99014.95
2018-06-15T11:53:13.134Z,99011.19
2018-06-15T11:55:42.735Z,99011.62
2018-06-15T11:58:11.960Z,99011.78
2018-06-15T12:00:41.186Z,99013.17
2018-06-15T12:03:10.485Z,99011.36
2018-06-15T12:05:39.817Z,99010.20
2018-06-15T12:08:09.047Z,99009.11
2018-06-15T12:10:38.279Z,99009.42
2018-06-15T12:13:07.570Z,99010.06
2018-06-15T12:15:37.016Z,99009.78
2018-06-15T12:18:06.230Z,99010.26
2018-06-15T12:20:35.523Z,99006.42
2018-06-15T12:23:05.779Z,99012.23
2018-06-15T12:25:35.142Z,99013.18
2018-06-15T12:28:04.525Z,99007.06
2018-06-15T12:30:34.873Z,99003.91
2018-06-15T12:33:04.647Z,99002.62
2018-06-15T12:35:33.973Z,99004.63
2018-06-15T12:38:03.248Z,98999.67
2018-06-15T12:40:32.402Z,98997.22
2018-06-15T12:43:01.663Z,98998.57
2018-06-15T12:45:30.820Z,99002.66
2018-06-15T12:48:00.091Z,98997.28
2018-06-15T12:50:29.272Z,99003.09
2018-06-15T12:52:58.518Z,99001.56
2018-06-15T12:55:28.659Z,98997.20
2018-06-15T12:57:57.871Z,99004.44
2018-06-15T13:00:27.033Z,98997.89
2018-06-15T13:02:56.387Z,98998.20
2018-06-15T13:05:25.557Z,98994.98
2018-06-15T13:07:54.895Z,98991.38
2018-06-15T13:10:24.239Z,98994.56
2018-06-15T13:12:53.435Z,98986.14
2018-06-15T13:15:22.654Z,98992.61
2018-06-15T13:17:51.875Z,98994.36
2018-06-15T13:20:21.056Z,98992.12
2018-06-15T13:22:50.303Z,98987.31
2018-06-15T13:25:19.470Z,98997.82
2018-06-15T13:27:48.633Z,98990.88
2018-06-15T13:30:18.686Z,98994.92
2018-06-15T13:32:48.033Z,98992.47
2018-06-15T13:35:18.329Z,98987.88
2018-06-15T13:37:47.553Z,98990.83
2018-06-15T13:40:21.082Z,98983.88
2018-06-15T13:42:51.083Z,98989.08
2018-06-15T13:45:21.092Z,98988.78
2018-06-15T13:47:51.211Z,98987.24
2018-06-15T13:50:21.359Z,98991.12
2018-06-15T13:52:50.684Z,98990.88
2018-06-15T13:55:19.834Z,98995.02
2018-06-15T13:57:49.701Z,98989.94
2018-06-15T14:00:18.956Z,98990.08
2018-06-15T14:02:48.143Z,98991.73
2018-06-15T14:05:19.529Z,98993.10
2018-06-15T14:07:48.738Z,98996.48
2018-06-15T14:10:17.962Z,98991.44
2018-06-15T14:12:47.230Z,98992.29
2018-06-15T14:15:16.637Z,98987.37
2018-06-15T14:17:46.111Z,98984.59
2018-06-15T14:20:17.074Z,98978.38
2018-06-15T14:22:46.346Z,98985.55
2018-06-15T14:25:15.533Z,98982.30
2018-06-15T14:27:47.194Z,98976.02
2018-06-15T14:30:18.455Z,98975.31
2018-06-15T14:32:48.042Z,98970.48
2018-06-15T14:35:17.128Z,98977.69
2018-06-15T14:37:46.281Z,98970.49
2018-06-15T14:40:18.162Z,98968.08
2018-06-15T14:42:47.561Z,98969.27
2018-06-15T14:45:17.157Z,98964.30
2018-06-15T14:47:46.530Z,98970.53
2018-06-15T14:50:15.811Z,98968.80
2018-06-15T14:52:45.300Z,98962.29
2018-06-15T14:55:14.574Z,98967.53
2018-06-15T14:57:43.791Z,98965.55
2018-06-15T15:00:16.643Z,98968.96
2018-06-15T15:02:45.870Z,98967.89
2018-06-15T15:05:15.559Z,98965.08
2018-06-15T15:07:45.083Z,98964.37
2018-06-15T15:10:14.997Z,98966.03
2018-06-15T15:12:44.147Z,98966.14
2018-06-15T15:15:13.430Z,98962.10
2018-06-15T15:17:42.530Z,98957.27
2018-06-15T15:20:11.767Z,98956.27
2018-06-15T15:22:40.883Z,98960.88
2018-06-15T15:25:10.161Z,98958.85
2018-06-15T15:27:39.363Z,98963.56
2018-06-15T15:30:08.597Z,98962.53
2018-06-15T15:32:37.890Z,98964.95
2018-06-15T15:35:07.151Z,98955.20
2018-06-15T15:37:36.314Z,98957.03
2018-06-15T15:40:05.780Z,98962.30
2018-06-15T15:42:35.026Z,98960.76
2018-06-15T15:45:05.024Z,98958.54
2018-06-15T15:47:34.303Z,98956.03
2018-06-15T15:50:03.891Z,98960.83
2018-06-15T15:52:33.064Z,98953.15
2018-06-15T15:55:02.788Z,98951.68
2018-06-15T15:57:31.910Z,98951.91
2018-06-15T16:00:01.267Z,98952.55
2018-06-15T16:02:30.568Z,98951.23
2018-06-15T16:04:59.803Z,98955.41
2018-06-15T16:07:29.802Z,98955.52
2018-06-15T16:09:59.034Z,98956.84
2018-06-15T16:12:28.766Z,98958.14
2018-06-15T16:14:57.829Z,98962.38
2018-06-15T16:17:27.623Z,98960.47
2018-06-15T16:19:57.184Z,98964.80
2018-06-15T16:22:26.357Z,98961.59
2018-06-15T16:24:56.464Z,98964.95
2018-06-15T16:27:25.876Z,98961.59
2018-06-15T16:29:55.910Z,98966.72
2018-06-15T16:32:25.925Z,98962.58
2018-06-15T16:34:55.230Z,98963.25
2018-06-15T16:37:24.622Z,98965.52
2018-06-15T16:39:53.816Z,98960.88
2018-06-15T16:42:23.613Z,98967.42
2018-06-15T16:44:52.831Z,98967.45
2018-06-15T16:47:22.017Z,98968.56
2018-06-15T16:49:51.622Z,98969.88
2018-06-15T16:52:21.098Z,98967.77
2018-06-15T16:54:51.786Z,98965.63
2018-06-15T16:57:21.201Z,98962.03
2018-06-15T16:59:50.311Z,98961.91
2018-06-15T17:02:19.463Z,98960.72
2018-06-15T17:04:48.650Z,98959.13
2018-06-15T17:07:17.900Z,98962.06
2018-06-15T17:09:47.002Z,98960.28
2018-06-15T17:12:16.239Z,98959.38
2018-06-15T17:14:45.639Z,98964.32
2018-06-15T17:17:14.854Z,98960.04
2018-06-15T17:19:44.165Z,98953.53
2018-06-15T17:22:13.539Z,98961.62
2018-06-15T17:24:42.755Z,98961.27
2018-06-15T17:27:12.410Z,98958.46
2018-06-15T17:29:41.476Z,98960.19
2018-06-15T17:32:11.478Z,98963.80
2018-06-15T17:34:40.661Z,98968.28
2018-06-15T17:37:09.863Z,98962.56
2018-06-15T17:39:39.873Z,98954.59
2018-06-15T17:42:09.307Z,98956.06
2018-06-15T17:44:38.491Z,98960.34
2018-06-15T17:47:07.669Z,98958.31
2018-06-15T17:49:36.788Z,98965.31
2018-06-15T17:52:06.426Z,98956.79
2018-06-15T17:54:35.522Z,98965.45
2018-06-15T17:57:04.978Z,98955.34
2018-06-15T17:59:34.071Z,98959.27
2018-06-15T18:02:03.275Z,98961.73
2018-06-15T18:04:32.363Z,98963.02
2018-06-15T18:07:01.585Z,98961.66
2018-06-15T18:09:30.759Z,98961.66
2018-06-15T18:12:00.780Z,98960.78
2018-06-15T18:14:29.906Z,98960.34
2018-06-15T18:16:59.123Z,98960.67
2018-06-15T18:19:28.278Z,98963.56
2018-06-15T18:21:57.442Z,98872.10
2018-06-15T18:24:26.564Z,98959.56
2018-06-15T18:26:55.776Z,98957.42
2018-06-15T18:29:24.936Z,98958.86
2018-06-15T18:31:54.171Z,98961.55
2018-06-15T18:34:23.331Z,98958.64
2018-06-15T18:36:52.434Z,98955.72
2018-06-15T18:39:21.650Z,98964.72
2018-06-15T18:41:50.806Z,98956.50
2018-06-15T18:44:19.967Z,98955.96
2018-06-15T18:46:49.051Z,98961.45
2018-06-15T18:49:18.230Z,98956.18
2018-06-15T18:51:47.446Z,98959.56
2018-06-15T18:54:16.567Z,98958.98
2018-06-15T18:56:45.701Z,98957.98
2018-06-15T18:59:14.918Z,98956.54
2018-06-15T19:01:44.129Z,98956.31
2018-06-15T19:04:13.255Z,98954.19
2018-06-15T19:06:42.410Z,98949.94
2018-06-15T19:09:12.447Z,98955.20
2018-06-15T19:11:41.625Z,98953.95
2018-06-15T19:14:10.738Z,98950.81
2018-06-15T19:16:39.918Z,98956.44
2018-06-15T19:19:09.026Z,98959.58
2018-06-15T19:21:38.158Z,98959.58
2018-06-15T19:24:07.320Z,98956.11
2018-06-15T19:26:36.556Z,98959.11
2018-06-15T19:29:06.430Z,98962.15
2018-06-15T19:31:35.534Z,98960.19
2018-06-15T19:34:04.681Z,98965.12
2018-06-15T19:36:33.914Z,98960.42
2018-06-15T19:39:03.048Z,98964.67
2018-06-15T19:41:32.318Z,98963.12
2018-06-15T19:44:01.480Z,98970.95
2018-06-15T19:46:30.622Z,98970.39
2018-06-15T19:49:00.113Z,98972.53
2018-06-15T19:51:29.322Z,98965.91
2018-06-15T19:53:58.486Z,98969.49
2018-06-15T19:56:28.096Z,98966.77
2018-06-15T19:58:57.221Z,98971.59
2018-06-15T20:01:26.507Z,98974.27
2018-06-15T20:03:55.662Z,98979.00
2018-06-15T20:06:24.900Z,98979.00
2018-06-15T20:08:54.077Z,98978.96
2018-06-15T20:11:23.402Z,98971.42
2018-06-15T20:13:52.638Z,98972.11
2018-06-15T20:16:21.923Z,98969.73
2018-06-15T20:18:51.119Z,98972.30
2018-06-15T20:21:20.256Z,98980.36
2018-06-15T20:23:49.423Z,98975.42
2018-06-15T20:26:18.532Z,98976.52
2018-06-15T20:28:47.975Z,98975.83
2018-06-15T20:31:17.167Z,98975.02
2018-06-15T20:33:46.374Z,98978.28
2018-06-15T20:36:15.759Z,98974.66
2018-06-15T20:38:44.919Z,98974.30
2018-06-15T20:41:14.039Z,98972.70
2018-06-15T20:43:43.343Z,98976.62
2018-06-15T20:46:12.466Z,98941.70
2018-06-15T20:48:41.565Z,98972.13
2018-06-15T20:51:10.754Z,98976.93
2018-06-15T20:53:40.066Z,98971.44
2018-06-15T20:56:09.359Z,98969.19
2018-06-15T20:58:38.909Z,98965.22
2018-06-15T21:01:08.275Z,98969.77
2018-06-15T21:03:37.508Z,98967.36
2018-06-15T21:06:06.672Z,98969.77
2018-06-15T21:08:35.832Z,98965.20
2018-06-15T21:11:05.891Z,98973.25
2018-06-15T21:13:35.085Z,98964.25
2018-06-15T21:16:04.376Z,98971.21
2018-06-15T21:18:34.237Z,98972.19
2018-06-15T21:21:03.333Z,98974.99
2018-06-15T21:23:32.508Z,98974.14
2018-06-15T21:26:01.658Z,98973.44
2018-06-15T21:28:30.780Z,98977.47
2018-06-15T21:30:59.891Z,98976.48
2018-06-15T21:33:29.058Z,98968.16
2018-06-15T21:35:58.136Z,98976.31
2018-06-15T21:38:27.254Z,98969.31
2018-06-15T21:40:56.893Z,98965.34
2018-06-15T21:43:26.066Z,98965.22
2018-06-15T21:45:55.353Z,98959.40
2018-06-15T21:48:24.458Z,98964.64
2018-06-15T21:50:54.176Z,98962.42
2018-06-15T21:53:23.345Z,98958.61
2018-06-15T21:55:52.555Z,98956.68
2018-06-15T21:58:21.687Z,98955.09
2018-06-15T22:00:50.794Z,98960.55
2018-06-15T22:03:20.079Z,98954.72
2018-06-15T22:05:49.170Z,98953.09
2018-06-15T22:08:18.314Z,98957.03
2018-06-15T22:10:47.547Z,98959.89
2018-06-15T22:13:17.622Z,98956.47
2018-06-15T22:15:46.771Z,98957.72
2018-06-15T22:18:15.925Z,98958.97
2018-06-15T22:20:45.136Z,98958.52
2018-06-15T22:23:16.237Z,98951.61
2018-06-15T22:25:45.532Z,98958.02
2018-06-15T22:28:14.797Z,98955.80
2018-06-15T22:30:43.927Z,98950.94
2018-06-15T22:33:13.606Z,98954.66
2018-06-15T22:35:42.822Z,98949.09
2018-06-15T22:38:11.994Z,98951.94
2018-06-15T22:40:41.215Z,98951.02
2018-06-15T22:43:10.494Z,98950.84
2018-06-15T22:45:39.715Z,98946.91
2018-06-15T22:48:08.892Z,98952.36
2018-06-15T22:50:38.193Z,98949.87
2018-06-15T22:53:07.424Z,98942.17
2018-06-15T22:55:36.571Z,98952.69
2018-06-15T22:58:05.905Z,98951.51
2018-06-15T23:00:35.098Z,98954.06
2018-06-15T23:03:04.314Z,98950.20
2018-06-15T23:05:33.483Z,98951.08
2018-06-15T23:08:02.831Z,98945.66
2018-06-15T23:10:31.993Z,98946.29
2018-06-15T23:13:01.088Z,98945.41
2018-06-15T23:15:30.220Z,98942.92
2018-06-15T23:17:59.312Z,98948.36
2018-06-15T23:20:28.479Z,98951.19
2018-06-15T23:22:57.657Z,98953.38
2018-06-15T23:25:26.836Z,98942.92
2018-06-15T23:27:56.062Z,98949.45
2018-06-15T23:30:25.250Z,98953.95
2018-06-15T23:32:54.669Z,98947.52
2018-06-15T23:35:23.794Z,98955.09
2018-06-15T23:37:53.365Z,98954.03
2018-06-15T23:40:22.665Z,98953.48
2018-06-15T23:42:51.861Z,98957.02
2018-06-15T23:45:21.065Z,98957.19
2018-06-15T23:47:50.223Z,98961.75
2018-06-15T23:50:19.353Z,98965.53
2018-06-15T23:52:49.395Z,98962.70
2018-06-15T23:55:18.558Z,98962.45
2018-06-15T23:57:47.846Z,98966.95
